createdAt,value
2018-11-05T00:00:12.109Z,1008.92
2018-11-05T00:01:12.087Z,1008.92
2018-11-05T00:02:12.050Z,1008.90
2018-11-05T00:03:12.020Z,1008.93
2018-11-05T00:04:11.989Z,1008.97
2018-11-05T00:05:11.963Z,1008.96
2018-11-05T00:06:11.931Z,1008.95
2018-11-05T00:07:11.901Z,1008.95
2018-11-05T00:08:11.893Z,1008.96
2018-11-05T00:09:11.841Z,1008.94
2018-11-05T00:10:11.811Z,1008.95
2018-11-05T00:11:11.781Z,1008.92
2018-11-05T00:12:11.750Z,1008.95
2018-11-05T00:13:11.725Z,1008.95
2018-11-05T00:14:11.691Z,1008.93
2018-11-05T00:15:11.661Z,1008.98
2018-11-05T00:16:11.633Z,1008.95
2018-11-05T00:17:11.602Z,1008.96
2018-11-05T00:18:11.572Z,1008.95
2018-11-05T00:19:11.543Z,1008.92
2018-11-05T00:20:12.051Z,1008.92
2018-11-05T00:21:11.483Z,1008.92
2018-11-05T00:22:11.482Z,1008.88
2018-11-05T00:23:11.423Z,1008.88
2018-11-05T00:24:11.392Z,1008.86
2018-11-05T00:25:11.361Z,1008.84
2018-11-05T00:26:11.332Z,1008.84
2018-11-05T00:27:11.302Z,1008.84
2018-11-05T00:28:11.273Z,1008.79
2018-11-05T00:29:11.278Z,1008.80
2018-11-05T00:30:11.211Z,1008.79
2018-11-05T00:31:11.183Z,1008.84
2018-11-05T00:32:11.153Z,1008.74
2018-11-05T00:33:11.124Z,1008.74
2018-11-05T00:34:11.105Z,1008.77
2018-11-05T00:35:11.063Z,1008.76
2018-11-05T00:36:11.032Z,1008.76
2018-11-05T00:37:11.004Z,1008.81
2018-11-05T00:38:10.974Z,1008.75
2018-11-05T00:39:10.943Z,1008.82
2018-11-05T00:40:10.914Z,1008.84
2018-11-05T00:41:10.883Z,1008.86
2018-11-05T00:42:10.865Z,1008.84
2018-11-05T00:43:10.825Z,1008.82
2018-11-05T00:44:10.795Z,1008.82
2018-11-05T00:45:10.765Z,1008.81
2018-11-05T00:46:10.734Z,1008.80
2018-11-05T00:47:10.706Z,1008.79
2018-11-05T00:48:10.676Z,1008.78
2018-11-05T00:49:10.646Z,1008.84
2018-11-05T00:50:10.614Z,1008.86
2018-11-05T00:51:10.584Z,1008.86
2018-11-05T00:52:10.555Z,1008.90
2018-11-05T00:53:10.525Z,1008.84
2018-11-05T00:54:10.498Z,1008.89
2018-11-05T00:55:10.464Z,1008.88
2018-11-05T00:56:10.435Z,1008.84
2018-11-05T00:57:11.058Z,1008.81
2018-11-05T00:58:10.377Z,1008.77
2018-11-05T00:59:11.057Z,1008.77
2018-11-05T01:00:10.317Z,1008.79
2018-11-05T01:01:10.287Z,1008.72
2018-11-05T01:02:10.318Z,1008.73
2018-11-05T01:03:10.228Z,1008.75
2018-11-05T01:04:10.543Z,1008.73
2018-11-05T01:05:10.168Z,1008.78
2018-11-05T01:06:10.137Z,1008.78
2018-11-05T01:07:10.108Z,1008.78
2018-11-05T01:08:10.081Z,1008.75
2018-11-05T01:09:10.048Z,1008.71
2018-11-05T01:10:10.017Z,1008.67
2018-11-05T01:11:09.987Z,1008.70
2018-11-05T01:12:09.958Z,1008.67
2018-11-05T01:13:09.931Z,1008.71
2018-11-05T01:14:09.898Z,1008.64
2018-11-05T01:15:09.869Z,1008.62
2018-11-05T01:16:09.839Z,1008.67
2018-11-05T01:17:09.811Z,1008.64
2018-11-05T01:18:09.779Z,1008.65
2018-11-05T01:19:09.750Z,1008.70
2018-11-05T01:20:09.719Z,1008.68
2018-11-05T01:21:09.690Z,1008.67
2018-11-05T01:22:09.660Z,1008.73
2018-11-05T01:23:09.631Z,1008.70
2018-11-05T01:24:09.600Z,1008.67
2018-11-05T01:25:09.570Z,1008.71
2018-11-05T01:26:09.546Z,1008.70
2018-11-05T01:27:09.510Z,1008.70
2018-11-05T01:28:09.481Z,1008.72
2018-11-05T01:29:09.451Z,1008.71
2018-11-05T01:30:09.421Z,1008.70
2018-11-05T01:31:09.392Z,1008.65
2018-11-05T01:32:09.363Z,1008.59
2018-11-05T01:33:09.331Z,1008.55
2018-11-05T01:34:09.303Z,1008.52
2018-11-05T01:35:09.272Z,1008.53
2018-11-05T01:36:09.242Z,1008.54
2018-11-05T01:37:09.324Z,1008.46
2018-11-05T01:38:09.183Z,1008.43
2018-11-05T01:39:09.153Z,1008.44
2018-11-05T01:40:09.125Z,1008.43
2018-11-05T01:41:09.094Z,1008.42
2018-11-05T01:42:09.065Z,1008.43
2018-11-05T01:43:09.035Z,1008.41
2018-11-05T01:44:09.005Z,1008.39
2018-11-05T01:45:08.973Z,1008.38
2018-11-05T01:46:08.943Z,1008.36
2018-11-05T01:47:08.913Z,1008.35
2018-11-05T01:48:08.884Z,1008.33
2018-11-05T01:49:08.855Z,1008.32
2018-11-05T01:50:08.825Z,1008.32
2018-11-05T01:51:08.796Z,1008.28
2018-11-05T01:52:08.766Z,1008.22
2018-11-05T01:53:08.737Z,1008.26
2018-11-05T01:54:08.705Z,1008.21
2018-11-05T01:55:08.676Z,1008.16
2018-11-05T01:56:08.647Z,1008.18
2018-11-05T01:57:08.616Z,1008.19
2018-11-05T01:58:08.589Z,1008.14
2018-11-05T01:59:08.565Z,1008.18
2018-11-05T02:00:08.527Z,1008.17
2018-11-05T02:01:08.497Z,1008.17
2018-11-05T02:02:08.467Z,1008.18
2018-11-05T02:03:08.438Z,1008.22
2018-11-05T02:04:08.409Z,1008.20
2018-11-05T02:05:08.381Z,1008.19
2018-11-05T02:06:08.348Z,1008.19
2018-11-05T02:07:08.321Z,1008.21
2018-11-05T02:08:08.288Z,1008.18
2018-11-05T02:09:08.260Z,1008.14
2018-11-05T02:10:08.242Z,1008.16
2018-11-05T02:11:08.198Z,1008.16
2018-11-05T02:12:08.172Z,1008.17
2018-11-05T02:13:08.201Z,1008.19
2018-11-05T02:14:08.110Z,1008.20
2018-11-05T02:15:08.080Z,1008.22
2018-11-05T02:16:08.133Z,1008.22
2018-11-05T02:17:08.021Z,1008.21
2018-11-05T02:18:07.992Z,1008.23
2018-11-05T02:19:07.964Z,1008.24
2018-11-05T02:20:07.933Z,1008.27
2018-11-05T02:21:07.902Z,1008.26
2018-11-05T02:22:07.872Z,1008.22
2018-11-05T02:23:07.842Z,1008.21
2018-11-05T02:24:08.571Z,1008.21
2018-11-05T02:25:07.783Z,1008.19
2018-11-05T02:26:07.754Z,1008.14
2018-11-05T02:27:07.784Z,1008.16
2018-11-05T02:28:07.694Z,1008.15
2018-11-05T02:29:07.665Z,1008.14
2018-11-05T02:30:07.633Z,1008.15
2018-11-05T02:31:07.612Z,1008.13
2018-11-05T02:32:07.579Z,1008.13
2018-11-05T02:33:07.551Z,1008.12
2018-11-05T02:34:07.514Z,1008.13
2018-11-05T02:35:07.487Z,1008.13
2018-11-05T02:36:07.459Z,1008.10
2018-11-05T02:37:07.428Z,1008.09
2018-11-05T02:38:07.395Z,1008.09
2018-11-05T02:39:07.367Z,1008.08
2018-11-05T02:40:07.336Z,1008.06
2018-11-05T02:41:08.074Z,1008.05
2018-11-05T02:42:07.283Z,1008.07
2018-11-05T02:43:07.246Z,1008.09
2018-11-05T02:44:07.218Z,1008.13
2018-11-05T02:45:08.074Z,1008.09
2018-11-05T02:46:07.157Z,1008.01
2018-11-05T02:47:07.133Z,1008.03
2018-11-05T02:48:07.101Z,1008.00
2018-11-05T02:49:07.068Z,1007.99
2018-11-05T02:50:07.037Z,1008.01
2018-11-05T02:51:07.015Z,1007.99
2018-11-05T02:52:07.574Z,1007.98
2018-11-05T02:53:06.948Z,1007.97
2018-11-05T02:54:06.921Z,1007.94
2018-11-05T02:55:06.889Z,1007.94
2018-11-05T02:56:06.859Z,1007.98
2018-11-05T02:57:06.830Z,1007.94
2018-11-05T02:58:06.806Z,1007.94
2018-11-05T02:59:06.769Z,1007.92
2018-11-05T03:00:06.740Z,1007.89
2018-11-05T03:01:06.711Z,1007.87
2018-11-05T03:02:06.680Z,1007.87
2018-11-05T03:03:06.720Z,1007.85
2018-11-05T03:04:06.622Z,1007.81
2018-11-05T03:05:06.591Z,1007.78
2018-11-05T03:06:06.561Z,1007.77
2018-11-05T03:07:06.540Z,1007.78
2018-11-05T03:08:06.500Z,1007.79
2018-11-05T03:09:06.471Z,1007.78
2018-11-05T03:10:06.442Z,1007.79
2018-11-05T03:11:06.411Z,1007.78
2018-11-05T03:12:06.382Z,1007.77
2018-11-05T03:13:06.354Z,1007.78
2018-11-05T03:14:06.321Z,1007.84
2018-11-05T03:15:06.291Z,1007.83
2018-11-05T03:16:06.261Z,1007.81
2018-11-05T03:17:06.231Z,1007.84
2018-11-05T03:18:06.201Z,1007.78
2018-11-05T03:19:06.179Z,1007.80
2018-11-05T03:20:06.142Z,1007.79
2018-11-05T03:21:06.112Z,1007.77
2018-11-05T03:22:06.086Z,1007.77
2018-11-05T03:23:06.053Z,1007.74
2018-11-05T03:24:06.026Z,1007.78
2018-11-05T03:25:05.992Z,1007.78
2018-11-05T03:26:05.962Z,1007.76
2018-11-05T03:27:05.938Z,1007.73
2018-11-05T03:28:05.904Z,1007.71
2018-11-05T03:29:05.873Z,1007.70
2018-11-05T03:30:05.845Z,1007.71
2018-11-05T03:31:05.814Z,1007.75
2018-11-05T03:32:05.790Z,1007.77
2018-11-05T03:33:05.755Z,1007.80
2018-11-05T03:34:05.723Z,1007.78
2018-11-05T03:35:05.695Z,1007.84
2018-11-05T03:36:05.665Z,1007.82
2018-11-05T03:37:05.637Z,1007.85
2018-11-05T03:38:05.605Z,1007.81
2018-11-05T03:39:05.574Z,1007.84
2018-11-05T03:40:05.587Z,1007.82
2018-11-05T03:41:05.517Z,1007.82
2018-11-05T03:42:05.488Z,1007.75
2018-11-05T03:43:05.455Z,1007.78
2018-11-05T03:44:05.427Z,1007.78
2018-11-05T03:45:05.404Z,1007.79
2018-11-05T03:46:05.368Z,1007.79
2018-11-05T03:47:05.336Z,1007.77
2018-11-05T03:48:05.308Z,1007.73
2018-11-05T03:49:05.278Z,1007.73
2018-11-05T03:50:05.248Z,1007.74
2018-11-05T03:51:05.217Z,1007.69
2018-11-05T03:52:05.189Z,1007.68
2018-11-05T03:53:05.159Z,1007.69
2018-11-05T03:54:05.129Z,1007.68
2018-11-05T03:55:05.098Z,1007.61
2018-11-05T03:56:05.160Z,1007.64
2018-11-05T03:57:05.041Z,1007.61
2018-11-05T03:58:05.007Z,1007.61
2018-11-05T03:59:05.586Z,1007.58
2018-11-05T04:00:04.948Z,1007.61
2018-11-05T04:01:04.919Z,1007.58
2018-11-05T04:02:04.888Z,1007.57
2018-11-05T04:03:04.937Z,1007.59
2018-11-05T04:04:04.830Z,1007.57
2018-11-05T04:05:04.800Z,1007.55
2018-11-05T04:06:04.769Z,1007.56
2018-11-05T04:07:04.740Z,1007.56
2018-11-05T04:08:04.711Z,1007.54
2018-11-05T04:09:04.679Z,1007.55
2018-11-05T04:10:04.654Z,1007.50
2018-11-05T04:11:04.620Z,1007.49
2018-11-05T04:12:04.592Z,1007.51
2018-11-05T04:13:04.561Z,1007.50
2018-11-05T04:14:04.536Z,1007.53
2018-11-05T04:15:04.500Z,1007.54
2018-11-05T04:16:04.608Z,1007.56
2018-11-05T04:17:04.443Z,1007.50
2018-11-05T04:18:04.411Z,1007.54
2018-11-05T04:19:04.382Z,1007.57
2018-11-05T04:20:04.352Z,1007.52
2018-11-05T04:21:04.324Z,1007.53
2018-11-05T04:22:04.293Z,1007.50
2018-11-05T04:23:04.263Z,1007.47
2018-11-05T04:24:04.234Z,1007.47
2018-11-05T04:25:04.203Z,1007.49
2018-11-05T04:26:04.173Z,1007.50
2018-11-05T04:27:04.147Z,1007.52
2018-11-05T04:28:04.113Z,1007.46
2018-11-05T04:29:04.084Z,1007.45
2018-11-05T04:30:04.054Z,1007.46
2018-11-05T04:31:04.024Z,1007.40
2018-11-05T04:32:03.995Z,1007.42
2018-11-05T04:33:03.965Z,1007.40
2018-11-05T04:34:03.936Z,1007.38
2018-11-05T04:35:03.907Z,1007.34
2018-11-05T04:36:03.877Z,1007.32
2018-11-05T04:37:03.849Z,1007.32
2018-11-05T04:38:03.816Z,1007.32
2018-11-05T04:39:03.788Z,1007.31
2018-11-05T04:40:03.766Z,1007.31
2018-11-05T04:41:03.726Z,1007.27
2018-11-05T04:42:03.697Z,1007.23
2018-11-05T04:43:03.668Z,1007.21
2018-11-05T04:44:03.638Z,1007.23
2018-11-05T04:45:03.608Z,1007.22
2018-11-05T04:46:03.583Z,1007.22
2018-11-05T04:47:03.551Z,1007.15
2018-11-05T04:48:03.518Z,1007.22
2018-11-05T04:49:03.491Z,1007.18
2018-11-05T04:50:03.459Z,1007.20
2018-11-05T04:51:03.432Z,1007.22
2018-11-05T04:52:03.400Z,1007.18
2018-11-05T04:53:03.372Z,1007.19
2018-11-05T04:54:03.340Z,1007.19
2018-11-05T04:55:03.315Z,1007.19
2018-11-05T04:56:03.281Z,1007.21
2018-11-05T04:57:03.251Z,1007.18
2018-11-05T04:58:03.221Z,1007.17
2018-11-05T04:59:03.191Z,1007.13
2018-11-05T05:00:03.165Z,1007.12
2018-11-05T05:01:03.133Z,1007.14
2018-11-05T05:02:03.103Z,1007.15
2018-11-05T05:03:03.073Z,1007.10
2018-11-05T05:04:03.044Z,1007.12
2018-11-05T05:05:03.014Z,1007.11
2018-11-05T05:06:02.983Z,1007.09
2018-11-05T05:07:02.955Z,1007.13
2018-11-05T05:08:02.925Z,1007.14
2018-11-05T05:09:02.895Z,1007.11
2018-11-05T05:10:02.866Z,1007.09
2018-11-05T05:11:02.834Z,1007.11
2018-11-05T05:12:02.841Z,1007.06
2018-11-05T05:13:02.782Z,1007.08
2018-11-05T05:14:02.747Z,1007.10
2018-11-05T05:15:02.720Z,1007.11
2018-11-05T05:16:02.716Z,1007.10
2018-11-05T05:17:02.658Z,1007.12
2018-11-05T05:18:02.627Z,1007.12
2018-11-05T05:19:02.596Z,1007.11
2018-11-05T05:20:02.568Z,1007.10
2018-11-05T05:21:02.538Z,1007.08
2018-11-05T05:22:02.507Z,1007.06
2018-11-05T05:23:02.655Z,1007.04
2018-11-05T05:24:02.449Z,1007.07
2018-11-05T05:25:02.421Z,1007.06
2018-11-05T05:26:02.399Z,1007.03
2018-11-05T05:27:02.360Z,1007.02
2018-11-05T05:28:02.330Z,1006.99
2018-11-05T05:29:02.301Z,1007.01
2018-11-05T05:30:02.269Z,1007.04
2018-11-05T05:31:02.241Z,1007.04
2018-11-05T05:32:02.211Z,1007.03
2018-11-05T05:33:02.212Z,1007.02
2018-11-05T05:34:02.152Z,1007.01
2018-11-05T05:35:02.122Z,1007.05
2018-11-05T05:36:02.092Z,1007.03
2018-11-05T05:37:02.068Z,1006.98
2018-11-05T05:38:02.034Z,1006.99
2018-11-05T05:39:02.002Z,1006.95
2018-11-05T05:40:01.977Z,1006.99
2018-11-05T05:41:01.953Z,1006.97
2018-11-05T05:42:01.918Z,1006.97
2018-11-05T05:43:01.883Z,1006.93
2018-11-05T05:44:01.856Z,1006.98
2018-11-05T05:45:01.826Z,1006.95
2018-11-05T05:46:01.795Z,1006.95
2018-11-05T05:47:01.770Z,1006.94
2018-11-05T05:48:01.736Z,1006.95
2018-11-05T05:49:01.706Z,1006.91
2018-11-05T05:50:01.710Z,1006.94
2018-11-05T05:51:01.647Z,1006.91
2018-11-05T05:52:01.617Z,1006.87
2018-11-05T05:53:01.587Z,1006.86
2018-11-05T05:54:01.558Z,1006.87
2018-11-05T05:55:01.530Z,1006.88
2018-11-05T05:56:01.498Z,1006.89
2018-11-05T05:57:01.468Z,1006.94
2018-11-05T05:58:01.439Z,1007.03
2018-11-05T05:59:01.411Z,1007.05
2018-11-05T06:00:01.524Z,1007.09
2018-11-05T06:01:08.769Z,1007.11
2018-11-05T06:02:54.742Z,1007.14
2018-11-05T06:03:54.666Z,1007.09
2018-11-05T06:05:48.021Z,1007.09
2018-11-05T06:06:47.940Z,1007.10
2018-11-05T06:08:40.767Z,1007.14
2018-11-05T06:09:40.711Z,1007.12
2018-11-05T06:11:33.543Z,1007.15
2018-11-05T06:12:33.480Z,1007.14
2018-11-05T06:14:26.809Z,1007.15
2018-11-05T06:15:26.751Z,1007.20
2018-11-05T06:17:19.573Z,1007.20
2018-11-05T06:18:19.519Z,1007.22
2018-11-05T06:20:12.652Z,1007.21
2018-11-05T06:21:12.587Z,1007.25
2018-11-05T06:23:05.393Z,1007.24
2018-11-05T06:24:05.360Z,1007.23
2018-11-05T06:25:58.386Z,1007.23
2018-11-05T06:26:58.328Z,1007.21
2018-11-05T06:28:51.646Z,1007.18
2018-11-05T06:29:51.596Z,1007.19
2018-11-05T06:30:51.566Z,1007.22
2018-11-05T06:31:51.536Z,1007.17
2018-11-05T06:32:51.507Z,1007.18
2018-11-05T06:33:51.478Z,1007.17
2018-11-05T06:34:51.448Z,1007.14
2018-11-05T06:35:51.419Z,1007.12
2018-11-05T06:36:51.388Z,1007.15
2018-11-05T06:37:51.360Z,1007.14
2018-11-05T06:38:51.327Z,1007.18
2018-11-05T06:39:51.299Z,1007.19
2018-11-05T06:40:51.279Z,1007.17
2018-11-05T06:41:51.316Z,1007.18
2018-11-05T06:42:51.210Z,1007.20
2018-11-05T06:43:51.179Z,1007.25
2018-11-05T06:44:51.227Z,1007.27
2018-11-05T06:45:51.123Z,1007.27
2018-11-05T06:46:51.091Z,1007.28
2018-11-05T06:47:51.063Z,1007.32
2018-11-05T06:48:51.067Z,1007.34
2018-11-05T06:49:51.002Z,1007.35
2018-11-05T06:50:50.971Z,1007.35
2018-11-05T06:51:50.955Z,1007.37
2018-11-05T06:52:50.973Z,1007.36
2018-11-05T06:53:50.886Z,1007.32
2018-11-05T06:54:50.858Z,1007.33
2018-11-05T06:55:50.824Z,1007.25
2018-11-05T06:56:50.795Z,1007.29
2018-11-05T06:57:50.855Z,1007.24
2018-11-05T06:58:50.736Z,1007.27
2018-11-05T06:59:50.704Z,1007.24
2018-11-05T07:00:50.678Z,1007.28
2018-11-05T07:01:50.648Z,1007.26
2018-11-05T07:02:50.620Z,1007.25
2018-11-05T07:03:50.588Z,1007.22
2018-11-05T07:04:50.559Z,1007.22
2018-11-05T07:05:50.566Z,1007.25
2018-11-05T07:06:50.497Z,1007.22
2018-11-05T07:07:50.470Z,1007.23
2018-11-05T07:08:50.444Z,1007.23
2018-11-05T07:09:50.528Z,1007.21
2018-11-05T07:10:50.382Z,1007.22
2018-11-05T07:11:50.353Z,1007.25
2018-11-05T07:12:50.324Z,1007.28
2018-11-05T07:13:50.303Z,1007.26
2018-11-05T07:14:50.265Z,1007.24
2018-11-05T07:15:50.243Z,1007.26
2018-11-05T07:16:50.208Z,1007.25
2018-11-05T07:17:50.179Z,1007.23
2018-11-05T07:18:50.330Z,1007.22
2018-11-05T07:19:50.123Z,1007.22
2018-11-05T07:20:50.088Z,1007.16
2018-11-05T07:21:50.069Z,1007.16
2018-11-05T07:22:50.028Z,1007.17
2018-11-05T07:23:50.001Z,1007.15
2018-11-05T07:24:49.970Z,1007.16
2018-11-05T07:25:49.942Z,1007.24
2018-11-05T07:26:49.912Z,1007.27
2018-11-05T07:27:49.955Z,1007.30
2018-11-05T07:28:49.852Z,1007.32
2018-11-05T07:29:49.824Z,1007.33
2018-11-05T07:30:49.844Z,1007.35
2018-11-05T07:31:49.768Z,1007.33
2018-11-05T07:32:49.736Z,1007.31
2018-11-05T07:33:49.804Z,1007.28
2018-11-05T07:34:49.676Z,1007.25
2018-11-05T07:35:49.652Z,1007.25
2018-11-05T07:36:49.687Z,1007.24
2018-11-05T07:37:49.590Z,1007.24
2018-11-05T07:38:49.556Z,1007.25
2018-11-05T07:39:49.528Z,1007.26
2018-11-05T07:40:49.500Z,1007.25
2018-11-05T07:41:49.472Z,1007.27
2018-11-05T07:42:49.441Z,1007.27
2018-11-05T07:43:49.420Z,1007.29
2018-11-05T07:44:49.383Z,1007.26
2018-11-05T07:45:49.353Z,1007.27
2018-11-05T07:46:49.330Z,1007.26
2018-11-05T07:47:49.300Z,1007.25
2018-11-05T07:48:49.264Z,1007.30
2018-11-05T07:49:49.235Z,1007.24
2018-11-05T07:50:49.329Z,1007.23
2018-11-05T07:51:49.180Z,1007.28
2018-11-05T07:52:49.148Z,1007.26
2018-11-05T07:53:49.133Z,1007.28
2018-11-05T07:54:49.089Z,1007.26
2018-11-05T07:55:49.058Z,1007.29
2018-11-05T07:56:49.044Z,1007.28
2018-11-05T07:57:49.000Z,1007.31
2018-11-05T07:58:48.970Z,1007.30
2018-11-05T07:59:48.942Z,1007.25
2018-11-05T08:00:48.911Z,1007.22
2018-11-05T08:01:48.883Z,1007.29
2018-11-05T08:02:48.935Z,1007.28
2018-11-05T08:03:48.826Z,1007.29
2018-11-05T08:04:48.795Z,1007.28
2018-11-05T08:05:48.766Z,1007.28
2018-11-05T08:06:48.736Z,1007.26
2018-11-05T08:07:48.709Z,1007.28
2018-11-05T08:08:48.677Z,1007.25
2018-11-05T08:09:48.649Z,1007.23
2018-11-05T08:10:48.617Z,1007.28
2018-11-05T08:11:48.590Z,1007.29
2018-11-05T08:12:48.561Z,1007.32
2018-11-05T08:13:48.533Z,1007.35
2018-11-05T08:14:48.504Z,1007.34
2018-11-05T08:15:48.475Z,1007.27
2018-11-05T08:16:48.443Z,1007.28
2018-11-05T08:17:48.413Z,1007.23
2018-11-05T08:18:48.385Z,1007.27
2018-11-05T08:19:48.356Z,1007.25
2018-11-05T08:20:48.325Z,1007.19
2018-11-05T08:21:48.297Z,1007.17
2018-11-05T08:22:48.267Z,1007.14
2018-11-05T08:23:48.239Z,1007.15
2018-11-05T08:24:48.209Z,1007.15
2018-11-05T08:25:48.181Z,1007.18
2018-11-05T08:26:48.149Z,1007.20
2018-11-05T08:27:48.120Z,1007.22
2018-11-05T08:28:48.091Z,1007.22
2018-11-05T08:29:48.061Z,1007.21
2018-11-05T08:30:48.037Z,1007.18
2018-11-05T08:31:48.003Z,1007.19
2018-11-05T08:32:47.974Z,1007.21
2018-11-05T08:33:47.945Z,1007.19
2018-11-05T08:34:47.917Z,1007.18
2018-11-05T08:35:47.891Z,1007.18
2018-11-05T08:36:47.858Z,1007.17
2018-11-05T08:37:47.828Z,1007.15
2018-11-05T08:38:47.796Z,1007.10
2018-11-05T08:39:47.769Z,1007.08
2018-11-05T08:40:47.745Z,1007.08
2018-11-05T08:41:47.712Z,1007.06
2018-11-05T08:42:47.681Z,1007.05
2018-11-05T08:43:47.652Z,1007.04
2018-11-05T08:44:47.747Z,1007.04
2018-11-05T08:45:47.598Z,1007.01
2018-11-05T08:46:48.296Z,1007.00
2018-11-05T08:49:29.924Z,1006.97
2018-11-05T08:50:29.894Z,1006.94
2018-11-05T08:52:22.677Z,1006.93
2018-11-05T08:53:22.644Z,1006.92
2018-11-05T08:55:16.464Z,1006.97
2018-11-05T08:56:16.405Z,1006.99
2018-11-05T08:58:09.214Z,1006.98
2018-11-05T08:59:09.179Z,1007.00
2018-11-05T09:01:02.873Z,1007.00
2018-11-05T09:02:02.747Z,1006.97
2018-11-05T09:03:55.852Z,1007.00
2018-11-05T09:04:55.891Z,1006.98
2018-11-05T09:06:48.657Z,1007.04
2018-11-05T09:07:48.586Z,1007.07
2018-11-05T09:09:42.191Z,1007.02
2018-11-05T09:10:42.339Z,1006.93
2018-11-05T09:12:35.473Z,1006.94
2018-11-05T09:13:35.413Z,1006.96
2018-11-05T09:15:28.253Z,1007.00
2018-11-05T09:16:28.190Z,1006.98
2018-11-05T09:18:21.292Z,1007.04
2018-11-05T09:19:21.292Z,1007.06
2018-11-05T09:21:14.095Z,1007.05
2018-11-05T09:22:14.031Z,1007.06
2018-11-05T09:24:06.837Z,1007.03
2018-11-05T09:25:06.818Z,1007.04
2018-11-05T09:26:59.642Z,1007.10
2018-11-05T09:27:59.733Z,1007.09
2018-11-05T09:29:52.415Z,1007.05
2018-11-05T09:30:52.353Z,1007.01
2018-11-05T09:32:45.163Z,1007.03
2018-11-05T09:33:45.126Z,1007.10
2018-11-05T09:35:38.254Z,1007.06
2018-11-05T09:36:38.196Z,1007.06
2018-11-05T09:38:31.028Z,1007.10
2018-11-05T09:39:30.967Z,1007.00
2018-11-05T09:41:24.269Z,1007.03
2018-11-05T09:42:24.239Z,1006.98
2018-11-05T09:44:17.361Z,1007.06
2018-11-05T09:45:17.304Z,1007.04
2018-11-05T09:47:10.640Z,1007.03
2018-11-05T09:48:10.576Z,1007.03
2018-11-05T09:50:03.892Z,1007.05
2018-11-05T09:51:03.643Z,1007.06
2018-11-05T09:52:56.939Z,1007.04
2018-11-05T09:53:56.920Z,1007.00
2018-11-05T09:55:50.041Z,1007.04
2018-11-05T09:56:49.983Z,1006.99
2018-11-05T09:58:43.292Z,1007.03
2018-11-05T09:59:43.252Z,1007.03
2018-11-05T10:01:37.170Z,1006.99
2018-11-05T10:02:36.833Z,1007.03
2018-11-05T10:04:30.069Z,1006.99
2018-11-05T10:05:29.886Z,1006.97
2018-11-05T10:07:23.008Z,1006.92
2018-11-05T10:08:22.946Z,1006.96
2018-11-05T10:10:15.836Z,1006.92
2018-11-05T10:11:15.725Z,1006.97
2018-11-05T10:13:09.047Z,1006.92
2018-11-05T10:14:08.998Z,1006.95
2018-11-05T10:16:01.915Z,1006.95
2018-11-05T10:17:01.769Z,1006.91
2018-11-05T10:18:54.892Z,1006.95
2018-11-05T10:19:54.834Z,1006.92
2018-11-05T10:21:47.674Z,1006.91
2018-11-05T10:22:47.608Z,1006.94
2018-11-05T10:24:40.827Z,1006.93
2018-11-05T10:25:40.693Z,1006.95
2018-11-05T10:27:33.526Z,1006.93
2018-11-05T10:28:33.466Z,1006.90
2018-11-05T10:30:26.773Z,1006.88
2018-11-05T10:31:26.745Z,1006.91
2018-11-05T10:33:19.585Z,1006.88
2018-11-05T10:34:19.516Z,1006.77
2018-11-05T10:36:12.644Z,1006.68
2018-11-05T10:37:12.584Z,1006.68
2018-11-05T10:39:05.395Z,1006.56
2018-11-05T10:40:05.365Z,1006.57
2018-11-05T10:41:58.222Z,1006.61
2018-11-05T10:42:58.169Z,1006.57
2018-11-05T10:44:51.766Z,1006.55
2018-11-05T10:45:51.726Z,1006.58
2018-11-05T10:47:45.062Z,1006.52
2018-11-05T10:48:45.001Z,1006.52
2018-11-05T10:50:38.351Z,1006.58
2018-11-05T10:51:38.310Z,1006.62
2018-11-05T10:53:31.076Z,1006.61
2018-11-05T10:54:31.048Z,1006.60
2018-11-05T10:56:24.075Z,1006.59
2018-11-05T10:57:24.008Z,1006.48
2018-11-05T10:59:17.118Z,1006.46
2018-11-05T11:00:17.084Z,1006.46
2018-11-05T11:02:10.787Z,1006.43
2018-11-05T11:03:10.655Z,1006.42
2018-11-05T11:05:03.759Z,1006.42
2018-11-05T11:06:03.723Z,1006.39
2018-11-05T11:07:57.161Z,1006.42
2018-11-05T11:08:57.100Z,1006.41
2018-11-05T11:10:50.424Z,1006.36
2018-11-05T11:11:50.370Z,1006.31
2018-11-05T11:13:43.465Z,1006.29
2018-11-05T11:14:43.437Z,1006.34
2018-11-05T11:16:36.268Z,1006.35
2018-11-05T11:17:36.210Z,1006.31
2018-11-05T11:19:29.543Z,1006.28
2018-11-05T11:20:29.485Z,1006.28
2018-11-05T11:22:44.899Z,1006.33
2018-11-05T11:24:16.121Z,1006.29
2018-11-05T11:25:16.095Z,1006.29
2018-11-05T11:27:09.432Z,1006.28
2018-11-05T11:28:09.431Z,1006.24
2018-11-05T11:30:02.688Z,1006.18
2018-11-05T11:31:02.640Z,1006.19
2018-11-05T11:32:55.784Z,1006.17
2018-11-05T11:33:55.711Z,1006.17
2018-11-05T11:35:48.525Z,1006.17
2018-11-05T11:36:48.653Z,1006.16
2018-11-05T11:38:41.927Z,1006.11
2018-11-05T11:39:41.570Z,1006.07
2018-11-05T11:40:41.543Z,1006.02
2018-11-05T11:41:41.518Z,1005.96
2018-11-05T11:42:41.484Z,1005.97
2018-11-05T11:43:41.459Z,1005.97
2018-11-05T11:44:41.467Z,1006.00
2018-11-05T11:45:41.406Z,1006.01
2018-11-05T11:46:41.391Z,1005.98
2018-11-05T11:47:41.343Z,1005.94
2018-11-05T11:48:41.321Z,1005.91
2018-11-05T11:49:41.297Z,1005.85
2018-11-05T11:50:41.273Z,1005.82
2018-11-05T11:51:41.239Z,1005.86
2018-11-05T11:52:41.396Z,1005.86
2018-11-05T11:53:41.188Z,1005.88
2018-11-05T11:54:41.158Z,1005.87
2018-11-05T11:55:41.184Z,1005.88
2018-11-05T11:56:41.106Z,1005.86
2018-11-05T11:57:41.075Z,1005.84
2018-11-05T11:58:41.069Z,1005.84
2018-11-05T11:59:41.065Z,1005.85
2018-11-05T12:00:41.050Z,1005.78
2018-11-05T12:01:40.968Z,1005.74
2018-11-05T12:02:40.941Z,1005.68
2018-11-05T12:03:40.913Z,1005.64
2018-11-05T12:04:40.908Z,1005.65
2018-11-05T12:05:40.887Z,1005.61
2018-11-05T12:06:40.833Z,1005.53
2018-11-05T12:07:40.809Z,1005.47
2018-11-05T12:08:40.774Z,1005.38
2018-11-05T12:09:40.748Z,1005.36
2018-11-05T12:10:40.735Z,1005.39
2018-11-05T12:11:40.727Z,1005.40
2018-11-05T12:12:40.701Z,1005.39
2018-11-05T12:13:40.648Z,1005.39
2018-11-05T12:14:40.759Z,1005.37
2018-11-05T12:15:40.586Z,1005.41
2018-11-05T12:16:40.580Z,1005.40
2018-11-05T12:17:40.534Z,1005.42
2018-11-05T12:18:40.501Z,1005.37
2018-11-05T12:19:40.476Z,1005.35
2018-11-05T12:20:40.450Z,1005.39
2018-11-05T12:21:40.425Z,1005.40
2018-11-05T12:22:40.398Z,1005.35
2018-11-05T12:23:40.369Z,1005.34
2018-11-05T12:24:40.385Z,1005.31
2018-11-05T12:25:40.315Z,1005.31
2018-11-05T12:26:40.327Z,1005.34
2018-11-05T12:27:40.259Z,1005.40
2018-11-05T12:28:40.248Z,1005.36
2018-11-05T12:29:40.201Z,1005.35
2018-11-05T12:30:40.182Z,1005.37
2018-11-05T12:31:40.156Z,1005.38
2018-11-05T12:32:40.124Z,1005.37
2018-11-05T12:33:40.103Z,1005.33
2018-11-05T12:34:40.077Z,1005.33
2018-11-05T12:35:40.041Z,1005.36
2018-11-05T12:36:40.023Z,1005.30
2018-11-05T12:37:39.990Z,1005.31
2018-11-05T12:38:40.013Z,1005.23
2018-11-05T12:39:39.931Z,1005.22
2018-11-05T12:40:39.909Z,1005.22
2018-11-05T12:41:40.340Z,1005.18
2018-11-05T12:42:41.857Z,1005.13
2018-11-05T12:43:40.211Z,1005.09
2018-11-05T12:44:40.263Z,1005.10
2018-11-05T12:45:40.720Z,1005.09
2018-11-05T12:46:40.153Z,1005.05
2018-11-05T12:47:41.697Z,1005.05
2018-11-05T12:48:40.028Z,1005.03
2018-11-05T12:49:39.992Z,1005.03
2018-11-05T12:50:39.865Z,1005.01
2018-11-05T12:51:40.105Z,1004.99
2018-11-05T12:52:41.867Z,1004.99
2018-11-05T12:53:41.494Z,1005.02
2018-11-05T12:54:39.978Z,1004.98
2018-11-05T12:55:39.915Z,1004.97
2018-11-05T12:56:39.648Z,1004.94
2018-11-05T12:57:39.763Z,1004.95
2018-11-05T12:58:39.795Z,1004.93
2018-11-05T12:59:39.610Z,1004.93
2018-11-05T13:00:39.834Z,1004.85
2018-11-05T13:01:41.067Z,1004.77
2018-11-05T13:02:41.013Z,1004.75
2018-11-05T13:03:40.231Z,1004.71
2018-11-05T13:04:39.769Z,1004.68
2018-11-05T13:05:39.629Z,1004.75
2018-11-05T13:06:39.657Z,1004.78
2018-11-05T13:07:39.501Z,1004.84